CheckWX is a tool to help pilots better visualize weather data.  It is not intended as a substitute for an official pre-flight weather briefing.

04:34:20 UTC

EPZG METAR
Zielona Góra-Babimost Airport
Babimost, Poland
Current

34 mins ago

EPZG 270400Z 30011KT 260V340 9999 BKN019 17/14 Q1021
Observed
Jun-27 @ 04:00 UTC
Wind
  • 300° at 11 KTS
Visibility
10,000+ meters
Flight Rules
MVFR
Cloud Levels
  • Broken at 1,900' AGL
Temperature
17°C / 63°F
Dewpoint
14°C / 57°F
Humidity
83%
Altimeter
30.15" Hg
Pressure
1020.92 hPa
Previous

1 hour ago

EPZG 270330Z 31006KT 270V020 9999 FEW018 BKN023 18/15 Q1021
Observed
Jun-27 @ 03:30 UTC
Wind
  • 310° at 6 KTS
Visibility
10,000+ meters
Flight Rules
MVFR
Cloud Levels
  • Few at 1,800' AGL
  • Broken at 2,300' AGL
Temperature
18°C / 64°F
Dewpoint
15°C / 59°F
Humidity
83%
Altimeter
30.15" Hg
Pressure
1020.92 hPa
Previous

2 hours ago

EPZG 270300Z 32007KT 270V010 9999 FEW040 18/15 Q1020
Observed
Jun-27 @ 03:00 UTC
Wind
  • 320° at 7 KTS
Visibility
10,000+ meters
Flight Rules
VFR
Cloud Levels
  • Few at 4,000' AGL
Temperature
18°C / 64°F
Dewpoint
15°C / 59°F
Humidity
83%
Altimeter
30.12" Hg
Pressure
1019.92 hPa